Stella Polaris — PEBD — position and weather

sailwx.info

Track history (hours):
 
Tides and Currents Weather Stations Pressure Air Temp Water Temp Dewpoint Dewpoint Depression Visibility Wind Speed Wind Dir Waves Ship Positions

Stella Polaris

Last reported at 2015-Mar-06 03:03 UTC. Time now 2015-Mar-06 04:07 UTC.
Position N 51°12' E 003°48'.

Length 117 m; draft 7.4 m.

Type: Ship (hazmat cat A). MMSI: 245911000.

Date/timePositionNaut miles runAvg speedWind from/ knotsBaromVisibWave heightAir tempDewpointWater temp
2015-Mar-06 03:03N 51°12' E 003°48'0 0.0
2015-Mar-06 02:33N 51°12' E 003°48'0 0.0
2015-Mar-05 21:24N 51°12' E 003°48'0 0.0
2015-Mar-05 20:18N 51°12' E 003°48'0 0.0
2015-Mar-05 19:33N 51°12' E 003°48'0 0.0
2015-Mar-05 18:30N 51°12' E 003°48'0 0.0
2015-Mar-05 12:20N 51°12' E 003°48'0 0.0
2015-Mar-05 10:26N 51°12' E 003°48'0 0.0
2015-Mar-05 09:17N 51°12' E 003°48'0 0.0
2015-Mar-05 06:29N 51°12' E 003°48'0 0.2
2015-Mar-05 05:20N 51°12' E 003°48'2 2.4
2015-Mar-05 04:25N 51°10' E 003°47'0 0.0
2015-Mar-05 03:23N 51°10' E 003°47'0 0.0
2015-Mar-05 02:29N 51°10' E 003°47'0 0.0
2015-Mar-05 01:29N 51°10' E 003°47'0 0.0
2015-Mar-05 00:11N 51°10' E 003°47'1 1.8
2015-Mar-04 23:33N 51°11' E 003°48'7 6.7
2015-Mar-04 22:33N 51°18' E 003°50'3 2.6
2015-Mar-04 21:34N 51°20' E 003°49'1 1.2
2015-Mar-04 20:33N 51°21' E 003°48'9 8.8
2015-Mar-04 19:34N 51°26' E 003°36'1110.4
2015-Mar-04 18:31N 51°34' E 003°25'1111.0
2015-Mar-04 17:32N 51°43' E 003°15'1111.0
2015-Mar-04 16:33N 51°54' E 003°18'43910.6
2015-Mar-02 23:16N 57°48' E 010°47'912.8
2015-Mar-02 22:33N 57°42' E 010°59'1414.2
2015-Mar-02 21:34N 57°32' E 011°18'1313.2
2015-Mar-02 20:33N 57°21' E 011°31'1813.5
2015-Mar-02 19:13N 57°04' E 011°42'1113.6
2015-Mar-02 18:26N 56°54' E 011°48'1112.9
2015-Mar-02 17:33N 56°42' E 011°51'12811.6
2015-Mar-02 06:33N 54°37' E 011°07'1414.1
2015-Mar-02 05:33N 54°31' E 011°29'1313.3
2015-Mar-02 04:33N 54°26' E 011°50'1312.6
2015-Mar-02 03:33N 54°29' E 012°11'2612.8
2015-Mar-02 01:33N 54°47' E 012°42'2813.1
2015-Mar-01 23:27N 54°56' E 013°27'1512.9
2015-Mar-01 22:17N 55°02' E 013°52'912.7
2015-Mar-01 21:33N 55°06' E 014°07'1312.5
2015-Mar-01 20:33N 55°15' E 014°21'1312.9
2015-Mar-01 19:33N 55°25' E 014°35'1312.7
2015-Mar-01 18:32N 55°32' E 014°54'  
2015-Feb-25 18:15N 59°39' E 023°25'1013.8
2015-Feb-25 17:30N 59°42' E 023°44'8113.6
2015-Feb-25 11:33N 60°08' E 026°17'1313.0
2015-Feb-25 10:34N 60°18' E 026°33'1413.6
2015-Feb-25 09:33N 60°25' E 026°56'0 0.3
2015-Feb-25 08:29N 60°26' E 026°55'0 0.0
2015-Feb-25 07:29N 60°26' E 026°55'0 0.0
2015-Feb-25 06:29N 60°26' E 026°55'0 0.0
2015-Feb-25 05:29N 60°26' E 026°55'0 0.0
2015-Feb-25 04:26N 60°26' E 026°55'0 0.0
2015-Feb-25 03:29N 60°26' E 026°55'0 0.0
2015-Feb-25 02:26N 60°26' E 026°55'0 0.0
2015-Feb-25 01:32N 60°26' E 026°55'0 0.0
2015-Feb-25 00:32N 60°26' E 026°55'0 0.0
2015-Feb-24 23:32N 60°26' E 026°55'0 0.0
2015-Feb-24 22:32N 60°26' E 026°55'0 0.0
2015-Feb-24 21:32N 60°26' E 026°55'0 0.0
2015-Feb-24 20:32N 60°26' E 026°55'0 0.0
2015-Feb-24 19:32N 60°26' E 026°55'0 0.0
2015-Feb-24 18:34N 60°26' E 026°55'0 0.0
2015-Feb-24 17:34N 60°26' E 026°55'0 0.0
2015-Feb-24 16:31N 60°26' E 026°55'0 0.0
2015-Feb-24 15:33N 60°26' E 026°55'0 0.0
2015-Feb-24 14:30N 60°26' E 026°55'0 0.0
2015-Feb-24 13:33N 60°26' E 026°55'0 0.0
2015-Feb-24 12:33N 60°26' E 026°55'1 0.5
2015-Feb-24 11:33N 60°25' E 026°56'6 5.8
2015-Feb-24 10:33N 60°23' E 026°46'7 6.8
2015-Feb-24 09:33N 60°19' E 026°34'8 8.5
2015-Feb-24 08:33N 60°12' E 026°23'6 6.4
2015-Feb-24 07:33N 60°06' E 026°19'5012.1
2015-Feb-24 03:26N 59°46' E 024°48'  
Track history (hours):
 
Tides and Currents Weather Stations Pressure Air Temp Water Temp Dewpoint Dewpoint Depression Visibility Wind Speed Wind Dir Waves Ship Positions

Stella Polaris

Last reported at 2015-Mar-06 03:03 UTC. Time now 2015-Mar-06 04:07 UTC.
Position N 51°12' E 003°48'.

Length 117 m; draft 7.4 m.

Type: Ship (hazmat cat A). MMSI: 245911000.

Date/timePositionNaut miles runAvg speedWind from/ knotsBaromVisibWave heightAir tempDewpointWater temp
2015-Mar-06 03:03N 51°12' E 003°48'0 0.0
2015-Mar-06 02:33N 51°12' E 003°48'0 0.0
2015-Mar-05 21:24N 51°12' E 003°48'0 0.0
2015-Mar-05 20:18N 51°12' E 003°48'0 0.0
2015-Mar-05 19:33N 51°12' E 003°48'0 0.0
2015-Mar-05 18:30N 51°12' E 003°48'0 0.0
2015-Mar-05 12:20N 51°12' E 003°48'0 0.0
2015-Mar-05 10:26N 51°12' E 003°48'0 0.0
2015-Mar-05 09:17N 51°12' E 003°48'0 0.0
2015-Mar-05 06:29N 51°12' E 003°48'0 0.2
2015-Mar-05 05:20N 51°12' E 003°48'2 2.4
2015-Mar-05 04:25N 51°10' E 003°47'0 0.0
2015-Mar-05 03:23N 51°10' E 003°47'0 0.0
2015-Mar-05 02:29N 51°10' E 003°47'0 0.0
2015-Mar-05 01:29N 51°10' E 003°47'0 0.0
2015-Mar-05 00:11N 51°10' E 003°47'1 1.8
2015-Mar-04 23:33N 51°11' E 003°48'7 6.7
2015-Mar-04 22:33N 51°18' E 003°50'3 2.6
2015-Mar-04 21:34N 51°20' E 003°49'1 1.2
2015-Mar-04 20:33N 51°21' E 003°48'9 8.8
2015-Mar-04 19:34N 51°26' E 003°36'1110.4
2015-Mar-04 18:31N 51°34' E 003°25'1111.0
2015-Mar-04 17:32N 51°43' E 003°15'1111.0
2015-Mar-04 16:33N 51°54' E 003°18'43910.6
2015-Mar-02 23:16N 57°48' E 010°47'912.8
2015-Mar-02 22:33N 57°42' E 010°59'1414.2
2015-Mar-02 21:34N 57°32' E 011°18'1313.2
2015-Mar-02 20:33N 57°21' E 011°31'1813.5
2015-Mar-02 19:13N 57°04' E 011°42'1113.6
2015-Mar-02 18:26N 56°54' E 011°48'1112.9
2015-Mar-02 17:33N 56°42' E 011°51'12811.6
2015-Mar-02 06:33N 54°37' E 011°07'1414.1
2015-Mar-02 05:33N 54°31' E 011°29'1313.3
2015-Mar-02 04:33N 54°26' E 011°50'1312.6
2015-Mar-02 03:33N 54°29' E 012°11'2612.8
2015-Mar-02 01:33N 54°47' E 012°42'2813.1
2015-Mar-01 23:27N 54°56' E 013°27'1512.9
2015-Mar-01 22:17N 55°02' E 013°52'912.7
2015-Mar-01 21:33N 55°06' E 014°07'1312.5
2015-Mar-01 20:33N 55°15' E 014°21'1312.9
2015-Mar-01 19:33N 55°25' E 014°35'1312.7
2015-Mar-01 18:32N 55°32' E 014°54'  
2015-Feb-25 18:15N 59°39' E 023°25'1013.8
2015-Feb-25 17:30N 59°42' E 023°44'8113.6
2015-Feb-25 11:33N 60°08' E 026°17'1313.0
2015-Feb-25 10:34N 60°18' E 026°33'1413.6
2015-Feb-25 09:33N 60°25' E 026°56'0 0.3
2015-Feb-25 08:29N 60°26' E 026°55'0 0.0
2015-Feb-25 07:29N 60°26' E 026°55'0 0.0
2015-Feb-25 06:29N 60°26' E 026°55'0 0.0
2015-Feb-25 05:29N 60°26' E 026°55'0 0.0
2015-Feb-25 04:26N 60°26' E 026°55'0 0.0
2015-Feb-25 03:29N 60°26' E 026°55'0 0.0
2015-Feb-25 02:26N 60°26' E 026°55'0 0.0
2015-Feb-25 01:32N 60°26' E 026°55'0 0.0
2015-Feb-25 00:32N 60°26' E 026°55'0 0.0
2015-Feb-24 23:32N 60°26' E 026°55'0 0.0
2015-Feb-24 22:32N 60°26' E 026°55'0 0.0
2015-Feb-24 21:32N 60°26' E 026°55'0 0.0
2015-Feb-24 20:32N 60°26' E 026°55'0 0.0
2015-Feb-24 19:32N 60°26' E 026°55'0 0.0
2015-Feb-24 18:34N 60°26' E 026°55'0 0.0
2015-Feb-24 17:34N 60°26' E 026°55'0 0.0
2015-Feb-24 16:31N 60°26' E 026°55'0 0.0
2015-Feb-24 15:33N 60°26' E 026°55'0 0.0
2015-Feb-24 14:30N 60°26' E 026°55'0 0.0
2015-Feb-24 13:33N 60°26' E 026°55'0 0.0
2015-Feb-24 12:33N 60°26' E 026°55'1 0.5
2015-Feb-24 11:33N 60°25' E 026°56'6 5.8
2015-Feb-24 10:33N 60°23' E 026°46'7 6.8
2015-Feb-24 09:33N 60°19' E 026°34'8 8.5
2015-Feb-24 08:33N 60°12' E 026°23'6 6.4
2015-Feb-24 07:33N 60°06' E 026°19'5012.1
2015-Feb-24 03:26N 59°46' E 024°48'  

Dump ship's entire track history